Terminal Aerodrome Forecast
Issued by NWS Paducah, KY

Home | Current Version | Previous Version | Text Only | Print | Product List | Glossary On
Versions: 1 2 3 4 5 6 7 8 9 10 11 12 13 14 15 16 17 18 19 20 21 22
494
FTUS43 KPAH 281120
TAFEVV
TAF
KEVV 281120Z 2812/2912 07004KT P6SM SCT100 BKN250
     FM281600 13010G15KT P6SM SCT050 BKN100
     FM282100 19012G22KT P6SM VCTS SCT030CB BKN050
     FM290200 18010KT P6SM VCTS BKN030CB OVC060=

USA.gov is the U.S. government's official web portal to all federal, state and local government web resources and services.